sensor_id;sensor_type;location;lat;lon;timestamp;pressure;altitude;pressure_sealevel;temperature;humidity
46023;BME280;31756;47.936;16.224;2023-02-18T00:02:05;98945.09;;;14.30;100.00
46023;BME280;31756;47.936;16.224;2023-02-18T00:04:31;98954.75;;;14.24;100.00
46023;BME280;31756;47.936;16.224;2023-02-18T00:06:58;98942.63;;;14.27;100.00
46023;BME280;31756;47.936;16.224;2023-02-18T00:09:23;98961.38;;;14.34;100.00
46023;BME280;31756;47.936;16.224;2023-02-18T00:11:49;98955.63;;;14.24;100.00
46023;BME280;31756;47.936;16.224;2023-02-18T00:14:15;98941.97;;;14.21;100.00
46023;BME280;31756;47.936;16.224;2023-02-18T00:16:41;98958.47;;;14.13;100.00
46023;BME280;31756;47.936;16.224;2023-02-18T00:19:09;98932.81;;;14.09;100.00
46023;BME280;31756;47.936;16.224;2023-02-18T00:21:35;98954.78;;;14.22;100.00
46023;BME280;31756;47.936;16.224;2023-02-18T00:24:01;98956.50;;;14.23;100.00
46023;BME280;31756;47.936;16.224;2023-02-18T00:26:27;98955.19;;;14.39;100.00
46023;BME280;31756;47.936;16.224;2023-02-18T00:28:52;98950.94;;;14.38;100.00
46023;BME280;31756;47.936;16.224;2023-02-18T00:33:47;98951.88;;;14.36;100.00
46023;BME280;31756;47.936;16.224;2023-02-18T00:36:13;98940.72;;;14.34;100.00
46023;BME280;31756;47.936;16.224;2023-02-18T00:38:53;98936.44;;;14.33;100.00
46023;BME280;31756;47.936;16.224;2023-02-18T00:41:20;98951.25;;;14.26;100.00
46023;BME280;31756;47.936;16.224;2023-02-18T00:43:46;98952.78;;;14.33;100.00
46023;BME280;31756;47.936;16.224;2023-02-18T00:46:12;98952.16;;;14.25;100.00
46023;BME280;31756;47.936;16.224;2023-02-18T00:48:37;98936.63;;;14.27;100.00
46023;BME280;31756;47.936;16.224;2023-02-18T00:51:03;98928.72;;;14.33;100.00
46023;BME280;31756;47.936;16.224;2023-02-18T00:53:29;98934.41;;;14.44;100.00
46023;BME280;31756;47.936;16.224;2023-02-18T00:55:55;98950.84;;;14.41;100.00
46023;BME280;31756;47.936;16.224;2023-02-18T00:58:20;98958.72;;;14.37;100.00
46023;BME280;31756;47.936;16.224;2023-02-18T01:00:46;98954.91;;;14.50;100.00
46023;BME280;31756;47.936;16.224;2023-02-18T01:03:12;98957.41;;;14.51;100.00
46023;BME280;31756;47.936;16.224;2023-02-18T01:05:38;98961.81;;;14.48;100.00
46023;BME280;31756;47.936;16.224;2023-02-18T01:08:05;98961.94;;;14.43;100.00
46023;BME280;31756;47.936;16.224;2023-02-18T01:10:33;98963.66;;;14.44;100.00
46023;BME280;31756;47.936;16.224;2023-02-18T01:12:58;98956.63;;;14.49;100.00
46023;BME280;31756;47.936;16.224;2023-02-18T01:15:24;98955.00;;;14.47;100.00
46023;BME280;31756;47.936;16.224;2023-02-18T01:17:50;98965.34;;;14.45;100.00
46023;BME280;31756;47.936;16.224;2023-02-18T01:20:16;98962.94;;;14.39;100.00
46023;BME280;31756;47.936;16.224;2023-02-18T01:22:41;98964.72;;;14.37;100.00
46023;BME280;31756;47.936;16.224;2023-02-18T01:25:07;98959.31;;;14.46;100.00
46023;BME280;31756;47.936;16.224;2023-02-18T01:27:33;98973.31;;;14.38;100.00
46023;BME280;31756;47.936;16.224;2023-02-18T01:30:00;98970.78;;;14.36;100.00
46023;BME280;31756;47.936;16.224;2023-02-18T01:32:25;98969.81;;;14.39;100.00
46023;BME280;31756;47.936;16.224;2023-02-18T01:34:51;98984.59;;;14.32;100.00
46023;BME280;31756;47.936;16.224;2023-02-18T01:37:16;98962.16;;;14.37;100.00
46023;BME280;31756;47.936;16.224;2023-02-18T01:39:42;98968.19;;;14.35;100.00
46023;BME280;31756;47.936;16.224;2023-02-18T01:42:15;98969.28;;;14.26;100.00
46023;BME280;31756;47.936;16.224;2023-02-18T01:44:42;98957.31;;;14.25;100.00
46023;BME280;31756;47.936;16.224;2023-02-18T01:47:10;98948.09;;;14.16;100.00
46023;BME280;31756;47.936;16.224;2023-02-18T01:49:36;98943.69;;;14.20;100.00
46023;BME280;31756;47.936;16.224;2023-02-18T01:52:02;98947.13;;;14.21;100.00
46023;BME280;31756;47.936;16.224;2023-02-18T01:54:32;98951.47;;;14.18;100.00
46023;BME280;31756;47.936;16.224;2023-02-18T01:57:02;98949.13;;;14.09;100.00
46023;BME280;31756;47.936;16.224;2023-02-18T01:59:30;98951.56;;;14.15;100.00
46023;BME280;31756;47.936;16.224;2023-02-18T02:01:57;98949.09;;;14.11;100.00
46023;BME280;31756;47.936;16.224;2023-02-18T02:04:23;98946.56;;;14.09;100.00
46023;BME280;31756;47.936;16.224;2023-02-18T02:06:48;98955.34;;;14.04;100.00
46023;BME280;31756;47.936;16.224;2023-02-18T02:09:14;98956.84;;;14.11;100.00
46023;BME280;31756;47.936;16.224;2023-02-18T02:11:51;98942.88;;;14.18;100.00
46023;BME280;31756;47.936;16.224;2023-02-18T02:14:24;98933.66;;;14.09;100.00
46023;BME280;31756;47.936;16.224;2023-02-18T02:16:56;98942.44;;;14.04;100.00
46023;BME280;31756;47.936;16.224;2023-02-18T02:30:06;98955.34;;;14.04;100.00
46023;BME280;31756;47.936;16.224;2023-02-18T02:35:15;98940.06;;;13.96;100.00
46023;BME280;31756;47.936;16.224;2023-02-18T02:40:15;98940.06;;;13.96;100.00
46023;BME280;31756;47.936;16.224;2023-02-18T02:42:45;98947.97;;;13.90;100.00
46023;BME280;31756;47.936;16.224;2023-02-18T02:47:48;98967.06;;;13.83;100.00
46023;BME280;31756;47.936;16.224;2023-02-18T02:52:48;98964.78;;;13.71;100.00
46023;BME280;31756;47.936;16.224;2023-02-18T02:55:18;98992.31;;;13.70;100.00
46023;BME280;31756;47.936;16.224;2023-02-18T02:57:50;98985.47;;;13.69;100.00
46023;BME280;31756;47.936;16.224;2023-02-18T03:00:30;98974.69;;;13.54;100.00
46023;BME280;31756;47.936;16.224;2023-02-18T03:10:45;98965.31;;;13.51;100.00
46023;BME280;31756;47.936;16.224;2023-02-18T03:18:30;98968.94;;;13.44;100.00
46023;BME280;31756;47.936;16.224;2023-02-18T03:24:08;98985.31;;;13.42;100.00
46023;BME280;31756;47.936;16.224;2023-02-18T03:26:25;98963.91;;;13.40;100.00
46023;BME280;31756;47.936;16.224;2023-02-18T03:28:53;98995.56;;;13.45;100.00
46023;BME280;31756;47.936;16.224;2023-02-18T03:31:22;98966.38;;;13.44;100.00
46023;BME280;31756;47.936;16.224;2023-02-18T03:36:35;98981.94;;;13.40;100.00
46023;BME280;31756;47.936;16.224;2023-02-18T03:39:02;98969.75;;;13.46;100.00
46023;BME280;31756;47.936;16.224;2023-02-18T03:41:29;98987.88;;;13.42;100.00
46023;BME280;31756;47.936;16.224;2023-02-18T03:44:03;98969.25;;;13.32;100.00
46023;BME280;31756;47.936;16.224;2023-02-18T03:46:29;98979.69;;;13.26;100.00
46023;BME280;31756;47.936;16.224;2023-02-18T03:48:57;98934.31;;;13.22;100.00
46023;BME280;31756;47.936;16.224;2023-02-18T03:51:22;98995.03;;;13.31;100.00
46023;BME280;31756;47.936;16.224;2023-02-18T03:53:51;98972.59;;;13.36;100.00
46023;BME280;31756;47.936;16.224;2023-02-18T03:56:17;98971.84;;;13.31;100.00
46023;BME280;31756;47.936;16.224;2023-02-18T03:58:42;98989.03;;;13.30;100.00
46023;BME280;31756;47.936;16.224;2023-02-18T04:01:08;98966.69;;;13.32;100.00
46023;BME280;31756;47.936;16.224;2023-02-18T04:03:33;98965.94;;;13.27;100.00
46023;BME280;31756;47.936;16.224;2023-02-18T04:05:59;98983.09;;;13.28;100.00
46023;BME280;31756;47.936;16.224;2023-02-18T04:08:24;99008.84;;;13.28;100.00
46023;BME280;31756;47.936;16.224;2023-02-18T04:10:50;98970.25;;;13.26;100.00
46023;BME280;31756;47.936;16.224;2023-02-18T04:13:16;98994.31;;;13.24;100.00
46023;BME280;31756;47.936;16.224;2023-02-18T04:15:42;98995.06;;;13.29;100.00
46023;BME280;31756;47.936;16.224;2023-02-18T04:18:08;98979.72;;;13.24;100.00
46023;BME280;31756;47.936;16.224;2023-02-18T04:20:33;98991.88;;;13.19;100.00
46023;BME280;31756;47.936;16.224;2023-02-18T04:22:59;98981.59;;;13.19;100.00
46023;BME280;31756;47.936;16.224;2023-02-18T04:25:24;99003.00;;;13.20;100.00
46023;BME280;31756;47.936;16.224;2023-02-18T04:27:50;98978.06;;;13.22;100.00
46023;BME280;31756;47.936;16.224;2023-02-18T04:30:16;98991.88;;;13.19;100.00
46023;BME280;31756;47.936;16.224;2023-02-18T04:32:41;98970.28;;;13.25;100.00
46023;BME280;31756;47.936;16.224;2023-02-18T04:35:07;99010.72;;;13.20;100.00
46023;BME280;31756;47.936;16.224;2023-02-18T04:37:32;99000.38;;;13.23;100.00
46023;BME280;31756;47.936;16.224;2023-02-18T04:39:58;98996.84;;;13.27;100.00
46023;BME280;31756;47.936;16.224;2023-02-18T04:42:23;99004.47;;;13.30;100.00
46023;BME280;31756;47.936;16.224;2023-02-18T04:44:49;98996.91;;;13.24;100.00
46023;BME280;31756;47.936;16.224;2023-02-18T04:47:15;99028.69;;;13.23;100.00
46023;BME280;31756;47.936;16.224;2023-02-18T04:49:40;99025.22;;;13.24;100.00
46023;BME280;31756;47.936;16.224;2023-02-18T04:52:06;98998.59;;;13.25;100.00
46023;BME280;31756;47.936;16.224;2023-02-18T04:54:31;99007.09;;;13.28;100.00
46023;BME280;31756;47.936;16.224;2023-02-18T04:56:57;99015.06;;;13.19;100.00
46023;BME280;31756;47.936;16.224;2023-02-18T04:59:22;99039.03;;;13.20;100.00
46023;BME280;31756;47.936;16.224;2023-02-18T05:01:48;99008.94;;;13.23;100.00
46023;BME280;31756;47.936;16.224;2023-02-18T05:04:13;99019.34;;;13.19;100.00
46023;BME280;31756;47.936;16.224;2023-02-18T05:06:39;99033.91;;;13.20;100.00
46023;BME280;31756;47.936;16.224;2023-02-18T05:09:07;99015.16;;;13.15;100.00
46023;BME280;31756;47.936;16.224;2023-02-18T05:11:32;99028.06;;;13.12;100.00
46023;BME280;31756;47.936;16.224;2023-02-18T05:13:58;99027.22;;;13.11;100.00
46023;BME280;31756;47.936;16.224;2023-02-18T05:16:23;98975.75;;;13.11;100.00
46023;BME280;31756;47.936;16.224;2023-02-18T05:18:49;99022.97;;;13.10;100.00
46023;BME280;31756;47.936;16.224;2023-02-18T05:21:14;99026.59;;;13.02;100.00
46023;BME280;31756;47.936;16.224;2023-02-18T05:23:40;99042.06;;;12.99;100.00
46023;BME280;31756;47.936;16.224;2023-02-18T05:26:05;99029.19;;;13.00;100.00
46023;BME280;31756;47.936;16.224;2023-02-18T05:28:31;99049.91;;;12.94;100.00
46023;BME280;31756;47.936;16.224;2023-02-18T05:30:56;99024.09;;;12.97;100.00
46023;BME280;31756;47.936;16.224;2023-02-18T05:33:22;99031.75;;;13.00;100.00
46023;BME280;31756;47.936;16.224;2023-02-18T05:35:48;99036.16;;;12.95;100.00
46023;BME280;31756;47.936;16.224;2023-02-18T05:38:14;99003.59;;;12.94;100.00
46023;BME280;31756;47.936;16.224;2023-02-18T05:40:39;99004.56;;;12.89;100.00
46023;BME280;31756;47.936;16.224;2023-02-18T05:43:05;99002.88;;;12.88;100.00
46023;BME280;31756;47.936;16.224;2023-02-18T05:45:30;99036.25;;;12.91;100.00
46023;BME280;31756;47.936;16.224;2023-02-18T05:47:56;99013.25;;;12.85;100.00
46023;BME280;31756;47.936;16.224;2023-02-18T05:50:21;99032.88;;;12.89;100.00
46023;BME280;31756;47.936;16.224;2023-02-18T05:52:47;99034.56;;;12.90;100.00
46023;BME280;31756;47.936;16.224;2023-02-18T05:55:12;99039.66;;;12.91;100.00
46023;BME280;31756;47.936;16.224;2023-02-18T05:57:38;99042.97;;;12.98;100.00
46023;BME280;31756;47.936;16.224;2023-02-18T06:00:04;99053.38;;;12.93;100.00
46023;BME280;31756;47.936;16.224;2023-02-18T06:02:30;99038.69;;;12.97;100.00
46023;BME280;31756;47.936;16.224;2023-02-18T06:04:57;99039.81;;;12.85;100.00
46023;BME280;31756;47.936;16.224;2023-02-18T06:07:22;99033.72;;;12.89;100.00
46023;BME280;31756;47.936;16.224;2023-02-18T06:09:48;99055.09;;;12.91;100.00
46023;BME280;31756;47.936;16.224;2023-02-18T06:12:13;99064.56;;;12.91;100.00
46023;BME280;31756;47.936;16.224;2023-02-18T06:14:39;99042.31;;;12.88;100.00
46023;BME280;31756;47.936;16.224;2023-02-18T06:17:07;99041.44;;;12.89;100.00
46023;BME280;31756;47.936;16.224;2023-02-18T06:19:33;99051.75;;;12.89;100.00
46023;BME280;31756;47.936;16.224;2023-02-18T06:21:58;99071.56;;;12.86;100.00
46023;BME280;31756;47.936;16.224;2023-02-18T06:24:23;99056.06;;;12.87;100.00
46023;BME280;31756;47.936;16.224;2023-02-18T06:26:49;99041.53;;;12.85;100.00
46023;BME280;31756;47.936;16.224;2023-02-18T06:29:14;99081.00;;;12.85;100.00
46023;BME280;31756;47.936;16.224;2023-02-18T06:31:40;99057.00;;;12.83;100.00
46023;BME280;31756;47.936;16.224;2023-02-18T06:34:05;99062.16;;;12.81;100.00
46023;BME280;31756;47.936;16.224;2023-02-18T06:36:31;99063.81;;;12.86;100.00
46023;BME280;31756;47.936;16.224;2023-02-18T06:38:56;99063.94;;;12.79;100.00
46023;BME280;31756;47.936;16.224;2023-02-18T06:41:23;99060.44;;;12.82;100.00
46023;BME280;31756;47.936;16.224;2023-02-18T06:43:49;99068.25;;;12.79;100.00
46023;BME280;31756;47.936;16.224;2023-02-18T06:46:15;99054.53;;;12.78;100.00
46023;BME280;31756;47.936;16.224;2023-02-18T06:48:40;99069.09;;;12.79;100.00
46023;BME280;31756;47.936;16.224;2023-02-18T06:51:06;99063.09;;;12.79;100.00
46023;BME280;31756;47.936;16.224;2023-02-18T06:53:31;99064.03;;;12.76;100.00
46023;BME280;31756;47.936;16.224;2023-02-18T06:55:57;99060.44;;;12.83;100.00
46023;BME280;31756;47.936;16.224;2023-02-18T06:58:23;99053.41;;;12.90;100.00
46023;BME280;31756;47.936;16.224;2023-02-18T07:00:48;99069.78;;;12.88;100.00
46023;BME280;31756;47.936;16.224;2023-02-18T07:03:14;99068.03;;;12.90;100.00
46023;BME280;31756;47.936;16.224;2023-02-18T07:05:40;99068.91;;;12.89;100.00
46023;BME280;31756;47.936;16.224;2023-02-18T07:08:05;99112.75;;;12.84;100.00
46023;BME280;31756;47.936;16.224;2023-02-18T07:10:31;99083.56;;;12.85;100.00
46023;BME280;31756;47.936;16.224;2023-02-18T07:12:57;99064.72;;;12.83;100.00
46023;BME280;31756;47.936;16.224;2023-02-18T07:15:22;99057.97;;;12.77;100.00
46023;BME280;31756;47.936;16.224;2023-02-18T07:17:51;99072.63;;;12.74;100.00
46023;BME280;31756;47.936;16.224;2023-02-18T07:20:17;99070.03;;;12.75;100.00
46023;BME280;31756;47.936;16.224;2023-02-18T07:22:42;99077.88;;;12.69;100.00
46023;BME280;31756;47.936;16.224;2023-02-18T07:25:08;99077.00;;;12.70;100.00
46023;BME280;31756;47.936;16.224;2023-02-18T07:27:33;99067.53;;;12.72;100.00
46023;BME280;31756;47.936;16.224;2023-02-18T07:29:59;99070.91;;;12.74;100.00
46023;BME280;31756;47.936;16.224;2023-02-18T07:32:24;99081.28;;;12.70;100.00
46023;BME280;31756;47.936;16.224;2023-02-18T07:34:50;99056.41;;;12.72;100.00
46023;BME280;31756;47.936;16.224;2023-02-18T07:37:16;99052.97;;;12.71;100.00
46023;BME280;31756;47.936;16.224;2023-02-18T07:39:42;99051.09;;;12.78;100.00
46023;BME280;31756;47.936;16.224;2023-02-18T07:42:08;99050.25;;;12.77;100.00
46023;BME280;31756;47.936;16.224;2023-02-18T07:44:34;99040.78;;;12.79;100.00
46023;BME280;31756;47.936;16.224;2023-02-18T07:46:59;99042.34;;;12.87;100.00
46023;BME280;31756;47.936;16.224;2023-02-18T07:49:26;99043.19;;;12.87;100.00
46023;BME280;31756;47.936;16.224;2023-02-18T07:51:54;99038.81;;;12.91;100.00
46023;BME280;31756;47.936;16.224;2023-02-18T07:54:19;99043.78;;;13.00;100.00
46023;BME280;31756;47.936;16.224;2023-02-18T07:56:45;99026.50;;;13.05;100.00
46023;BME280;31756;47.936;16.224;2023-02-18T07:59:11;99030.72;;;13.07;100.00
46023;BME280;31756;47.936;16.224;2023-02-18T08:01:37;99037.41;;;13.17;100.00
46023;BME280;31756;47.936;16.224;2023-02-18T08:04:02;99033.94;;;13.18;100.00
46023;BME280;31756;47.936;16.224;2023-02-18T08:06:38;99035.50;;;13.25;100.00
46023;BME280;31756;47.936;16.224;2023-02-18T08:09:04;99051.03;;;13.22;100.00
46023;BME280;31756;47.936;16.224;2023-02-18T08:11:30;99032.94;;;13.24;100.00
46023;BME280;31756;47.936;16.224;2023-02-18T08:13:56;99035.50;;;13.25;100.00
46023;BME280;31756;47.936;16.224;2023-02-18T08:16:21;99040.63;;;13.25;100.00
46023;BME280;31756;47.936;16.224;2023-02-18T08:18:48;99026.72;;;13.33;100.00
46023;BME280;31756;47.936;16.224;2023-02-18T08:21:14;99036.97;;;13.36;100.00
46023;BME280;31756;47.936;16.224;2023-02-18T08:23:40;99040.31;;;13.39;100.00
46023;BME280;31756;47.936;16.224;2023-02-18T08:26:06;99029.16;;;13.40;100.00
46023;BME280;31756;47.936;16.224;2023-02-18T08:28:40;99031.63;;;13.43;100.00
46023;BME280;31756;47.936;16.224;2023-02-18T08:31:06;99031.84;;;13.36;100.00
46023;BME280;31756;47.936;16.224;2023-02-18T08:33:31;99035.94;;;13.43;100.00
46023;BME280;31756;47.936;16.224;2023-02-18T08:35:57;99045.25;;;13.48;100.00
46023;BME280;31756;47.936;16.224;2023-02-18T08:38:22;99031.38;;;13.54;100.00
46023;BME280;31756;47.936;16.224;2023-02-18T08:40:48;99045.06;;;13.56;100.00
46023;BME280;31756;47.936;16.224;2023-02-18T08:43:14;99036.50;;;13.55;100.00
46023;BME280;31756;47.936;16.224;2023-02-18T08:45:40;99034.69;;;13.59;100.00
46023;BME280;31756;47.936;16.224;2023-02-18T08:48:06;99040.59;;;13.62;100.00
46023;BME280;31756;47.936;16.224;2023-02-18T08:50:32;99042.16;;;13.69;100.00
46023;BME280;31756;47.936;16.224;2023-02-18T08:52:58;99045.69;;;13.65;100.00
46023;BME280;31756;47.936;16.224;2023-02-18T08:55:29;99048.16;;;13.70;100.00
46023;BME280;31756;47.936;16.224;2023-02-18T08:57:55;99031.66;;;13.77;100.00
46023;BME280;31756;47.936;16.224;2023-02-18T09:00:21;99030.59;;;13.84;100.00
46023;BME280;31756;47.936;16.224;2023-02-18T09:02:46;99029.59;;;13.90;100.00
46023;BME280;31756;47.936;16.224;2023-02-18T09:05:12;99020.75;;;14.00;100.00
46023;BME280;31756;47.936;16.224;2023-02-18T09:07:37;99024.03;;;14.05;100.00
46023;BME280;31756;47.936;16.224;2023-02-18T09:10:03;99043.03;;;14.02;100.00
46023;BME280;31756;47.936;16.224;2023-02-18T09:12:29;99031.22;;;13.94;100.00
46023;BME280;31756;47.936;16.224;2023-02-18T09:14:54;99036.28;;;13.97;100.00
46023;BME280;31756;47.936;16.224;2023-02-18T09:17:20;99031.22;;;13.94;100.00
46023;BME280;31756;47.936;16.224;2023-02-18T09:19:46;99052.56;;;13.99;100.00
46023;BME280;31756;47.936;16.224;2023-02-18T09:22:11;99041.66;;;13.89;100.00
46023;BME280;31756;47.936;16.224;2023-02-18T09:24:38;99054.38;;;13.95;100.00
46023;BME280;31756;47.936;16.224;2023-02-18T09:27:04;99050.13;;;13.93;100.00
46023;BME280;31756;47.936;16.224;2023-02-18T09:29:30;99044.88;;;13.97;100.00
46023;BME280;31756;47.936;16.224;2023-02-18T09:31:58;99043.13;;;13.98;100.00
46023;BME280;31756;47.936;16.224;2023-02-18T09:34:24;99033.38;;;14.09;100.00
46023;BME280;31756;47.936;16.224;2023-02-18T09:36:50;99033.88;;;14.23;100.00
46023;BME280;31756;47.936;16.224;2023-02-18T09:39:15;99030.97;;;14.35;100.00
46023;BME280;31756;47.936;16.224;2023-02-18T09:41:43;99023.44;;;14.28;100.00
46023;BME280;31756;47.936;16.224;2023-02-18T09:44:15;99009.19;;;14.45;100.00
46023;BME280;31756;47.936;16.224;2023-02-18T09:46:47;99006.66;;;14.44;100.00
46023;BME280;31756;47.936;16.224;2023-02-18T09:49:15;98999.63;;;14.49;100.00
46023;BME280;31756;47.936;16.224;2023-02-18T09:51:42;99001.59;;;14.41;100.00
46023;BME280;31756;47.936;16.224;2023-02-18T09:54:11;99017.66;;;14.50;100.00
46023;BME280;31756;47.936;16.224;2023-02-18T09:56:37;98994.09;;;14.62;100.00
46023;BME280;31756;47.936;16.224;2023-02-18T09:59:04;98998.91;;;14.44;100.00
46023;BME280;31756;47.936;16.224;2023-02-18T10:01:35;99008.31;;;14.46;100.00
46023;BME280;31756;47.936;16.224;2023-02-18T10:04:04;99016.84;;;14.48;100.00
46023;BME280;31756;47.936;16.224;2023-02-18T10:06:35;99010.91;;;14.46;100.00
46023;BME280;31756;47.936;16.224;2023-02-18T10:09:05;98989.09;;;14.56;100.00
46023;BME280;31756;47.936;16.224;2023-02-18T10:11:37;98994.09;;;14.62;100.00
46023;BME280;31756;47.936;16.224;2023-02-18T10:14:04;98984.75;;;14.58;100.00
46023;BME280;31756;47.936;16.224;2023-02-18T10:16:34;98985.97;;;14.75;100.00
46023;BME280;31756;47.936;16.224;2023-02-18T10:19:00;98978.97;;;14.78;100.00
46023;BME280;31756;47.936;16.224;2023-02-18T10:21:29;98978.00;;;14.82;100.00
46023;BME280;31756;47.936;16.224;2023-02-18T10:26:22;98974.88;;;14.99;100.00
46023;BME280;31756;47.936;16.224;2023-02-18T10:28:48;98988.91;;;14.90;100.00
46023;BME280;31756;47.936;16.224;2023-02-18T10:31:31;98967.69;;;15.08;100.00
46023;BME280;31756;47.936;16.224;2023-02-18T10:49:50;98977.09;;;14.83;100.00
46023;BME280;31756;47.936;16.224;2023-02-18T10:52:18;98981.56;;;14.78;100.00
46023;BME280;31756;47.936;16.224;2023-02-18T10:54:48;98973.91;;;14.75;100.00
46023;BME280;31756;47.936;16.224;2023-02-18T10:57:19;98970.09;;;14.59;100.00
46023;BME280;31756;47.936;16.224;2023-02-18T11:00:33;98965.78;;;14.59;100.00
46023;BME280;31756;47.936;16.224;2023-02-18T11:02:37;98956.34;;;14.58;100.00
46023;BME280;31756;47.936;16.224;2023-02-18T11:05:17;98954.69;;;14.56;100.00
46023;BME280;31756;47.936;16.224;2023-02-18T11:07:45;98948.75;;;14.54;100.00
46023;BME280;31756;47.936;16.224;2023-02-18T11:10:16;98954.94;;;14.48;100.00
46023;BME280;31756;47.936;16.224;2023-02-18T11:12:45;98957.00;;;14.65;100.00
46023;BME280;31756;47.936;16.224;2023-02-18T11:15:19;98953.50;;;14.68;100.00
46023;BME280;31756;47.936;16.224;2023-02-18T11:17:47;98957.22;;;14.59;100.00
46023;BME280;31756;47.936;16.224;2023-02-18T11:22:48;98930.06;;;14.74;100.00
46023;BME280;31756;47.936;16.224;2023-02-18T11:27:54;98922.16;;;14.80;100.00
46023;BME280;31756;47.936;16.224;2023-02-18T11:30:37;98922.53;;;14.94;100.00
46023;BME280;31756;47.936;16.224;2023-02-18T11:33:20;98925.94;;;14.96;100.00
46023;BME280;31756;47.936;16.224;2023-02-18T11:35:48;98907.00;;;14.95;100.00
46023;BME280;31756;47.936;16.224;2023-02-18T11:38:33;98895.97;;;15.17;100.00
46023;BME280;31756;47.936;16.224;2023-02-18T11:41:02;98886.06;;;15.56;100.00
46023;BME280;31756;47.936;16.224;2023-02-18T11:43:30;98878.63;;;15.94;100.00
46023;BME280;31756;47.936;16.224;2023-02-18T11:48:33;98880.03;;;16.03;100.00
46023;BME280;31756;47.936;16.224;2023-02-18T11:51:00;98886.94;;;15.79;100.00
46023;BME280;31756;47.936;16.224;2023-02-18T11:56:05;98869.78;;;16.00;100.00
46023;BME280;31756;47.936;16.224;2023-02-18T11:58:38;98854.22;;;16.02;100.00
46023;BME280;31756;47.936;16.224;2023-02-18T12:01:05;98852.38;;;15.82;98.45
46023;BME280;31756;47.936;16.224;2023-02-18T12:06:11;98841.69;;;15.43;99.60
46023;BME280;31756;47.936;16.224;2023-02-18T12:08:44;98841.38;;;15.27;98.73
46023;BME280;31756;47.936;16.224;2023-02-18T12:11:13;98836.97;;;15.31;100.00
46023;BME280;31756;47.936;16.224;2023-02-18T12:13:42;98834.25;;;15.34;98.52
46023;BME280;31756;47.936;16.224;2023-02-18T12:21:30;98811.28;;;15.49;97.85
46023;BME280;31756;47.936;16.224;2023-02-18T12:42:27;98750.47;;;16.73;83.22
46023;BME280;31756;47.936;16.224;2023-02-18T12:45:03;98755.75;;;16.71;79.86
46023;BME280;31756;47.936;16.224;2023-02-18T12:47:41;98757.47;;;16.71;78.73
46023;BME280;31756;47.936;16.224;2023-02-18T12:52:57;98733.13;;;16.95;76.82
46023;BME280;31756;47.936;16.224;2023-02-18T12:55:43;98731.59;;;16.91;75.83
46023;BME280;31756;47.936;16.224;2023-02-18T13:16:27;98706.44;;;16.53;78.22
46023;BME280;31756;47.936;16.224;2023-02-18T13:21:28;98698.00;;;16.48;75.65
46023;BME280;31756;47.936;16.224;2023-02-18T13:23:56;98695.50;;;16.46;76.13
46023;BME280;31756;47.936;16.224;2023-02-18T13:26:23;98700.34;;;16.54;75.14
46023;BME280;31756;47.936;16.224;2023-02-18T13:39:08;98675.91;;;16.40;76.75
46023;BME280;31756;47.936;16.224;2023-02-18T13:41:39;98669.34;;;16.32;77.68
46023;BME280;31756;47.936;16.224;2023-02-18T13:44:07;98659.56;;;16.38;77.41
46023;BME280;31756;47.936;16.224;2023-02-18T13:46:35;98658.69;;;16.60;77.13
46023;BME280;31756;47.936;16.224;2023-02-18T13:49:11;98650.50;;;16.70;75.64
46023;BME280;31756;47.936;16.224;2023-02-18T13:51:39;98640.69;;;16.77;73.67
46023;BME280;31756;47.936;16.224;2023-02-18T13:56:42;98638.59;;;16.85;71.25
46023;BME280;31756;47.936;16.224;2023-02-18T13:59:10;98622.03;;;16.89;71.29
46023;BME280;31756;47.936;16.224;2023-02-18T14:09:35;98603.97;;;17.06;69.59
46023;BME280;31756;47.936;16.224;2023-02-18T14:14:47;98594.66;;;17.02;72.35
46023;BME280;31756;47.936;16.224;2023-02-18T14:27:32;98571.75;;;16.93;73.88
46023;BME280;31756;47.936;16.224;2023-02-18T14:30:03;98578.38;;;17.00;72.07
46023;BME280;31756;47.936;16.224;2023-02-18T14:32:31;98569.59;;;17.03;71.64
46023;BME280;31756;47.936;16.224;2023-02-18T14:35:07;98570.75;;;16.97;73.70
46023;BME280;31756;47.936;16.224;2023-02-18T14:37:43;98564.94;;;16.92;75.91
46023;BME280;31756;47.936;16.224;2023-02-18T14:50:14;98570.28;;;16.69;78.23
46023;BME280;31756;47.936;16.224;2023-02-18T14:52:44;98545.53;;;16.63;79.24
46023;BME280;31756;47.936;16.224;2023-02-18T14:55:17;98554.63;;;16.52;79.40
46023;BME280;31756;47.936;16.224;2023-02-18T14:57:45;98558.16;;;16.51;80.79
46023;BME280;31756;47.936;16.224;2023-02-18T15:00:14;98553.38;;;16.41;80.72
46023;BME280;31756;47.936;16.224;2023-02-18T15:02:40;98548.25;;;16.40;81.31
46023;BME280;31756;47.936;16.224;2023-02-18T15:05:12;98548.41;;;16.37;82.11
46023;BME280;31756;47.936;16.224;2023-02-18T15:07:38;98545.41;;;16.26;83.90
46023;BME280;31756;47.936;16.224;2023-02-18T15:10:10;98549.63;;;16.28;84.48
46023;BME280;31756;47.936;16.224;2023-02-18T15:12:37;98540.97;;;16.29;84.05
46023;BME280;31756;47.936;16.224;2023-02-18T15:15:03;98544.00;;;16.19;84.99
46023;BME280;31756;47.936;16.224;2023-02-18T15:17:29;98534.50;;;16.19;86.24
46023;BME280;31756;47.936;16.224;2023-02-18T15:19:57;98544.25;;;16.13;86.68
46023;BME280;31756;47.936;16.224;2023-02-18T15:22:25;98532.50;;;16.06;88.21
46023;BME280;31756;47.936;16.224;2023-02-18T15:24:54;98537.81;;;16.03;88.44
46023;BME280;31756;47.936;16.224;2023-02-18T15:27:21;98526.34;;;15.88;90.59